EST,Max TemperatureF,Mean TemperatureF,Min TemperatureF,Max Dew PointF,MeanDew PointF,Min DewpointF,Max Humidity, Mean Humidity, Min Humidity, Max Sea Level PressureIn, Mean Sea Level PressureIn, Min Sea Level PressureIn, Max VisibilityMiles, Mean VisibilityMiles, Min VisibilityMiles, Max Wind SpeedMPH, Mean Wind SpeedMPH, Max Gust SpeedMPH,PrecipitationIn, CloudCover, Events, WindDirDegrees
2012-12-1,37,34,32,36,30,21,100,86,64,30.55,30.50,30.42,10,7,2,10,7,,0.00,8,Rain-Snow,47
2012-12-2,53,44,35,48,42,36,100,93,72,30.42,30.26,30.09,10,4,0,10,5,17,0.06,5,Fog-Rain,250
2012-12-3,57,49,39,48,43,37,100,79,51,30.29,30.19,30.08,10,7,1,15,6,21,0.00,2,,320
2012-12-4,55,46,37,55,48,37,100,98,87,30.30,30.20,29.99,10,8,2,12,3,17,0.04,6,Rain,191
2012-12-5,53,44,33,54,37,19,100,69,47,30.14,30.00,29.90,10,9,5,21,9,30,0.06,3,Rain,311
2012-12-6,39,34,28,21,18,16,74,53,39,30.33,30.29,30.27,10,10,7,12,5,16,0.00,0,,338
2012-12-7,44,36,28,45,35,21,100,86,66,30.28,30.15,30.02,10,8,1,8,2,,0.06,7,Rain,212
2012-12-8,50,47,44,48,46,45,100,100,93,30.02,29.93,29.86,10,2,0,7,2,,0.19,8,Fog-Rain,298
2012-12-9,48,44,39,48,40,36,100,85,71,30.24,30.17,29.99,10,7,0,16,6,20,0.28,4,Fog-Rain,39
2012-12-10,57,50,42,57,53,43,100,100,100,30.04,29.72,29.54,6,1,0,13,5,18,1.25,8,Fog-Rain,223
2012-12-11,48,40,33,46,33,25,100,70,50,30.18,29.91,29.61,10,10,4,15,9,22,0.06,4,Rain,345
2012-12-12,41,36,32,27,24,21,80,64,49,30.43,30.34,30.18,10,10,10,10,5,16,0.00,0,,334
2012-12-13,44,38,32,27,25,21,80,66,39,30.46,30.39,30.29,10,10,9,8,4,,0.00,0,,337
2012-12-14,46,39,32,30,27,23,87,61,43,30.29,30.19,30.10,10,10,8,10,5,18,0.00,0,,276
2012-12-15,44,38,33,30,28,27,81,68,49,30.31,30.26,30.20,10,10,9,8,4,,0.00,0,,342
2012-12-16,39,37,35,37,34,30,100,91,75,30.25,30.11,29.96,10,6,1,14,7,17,0.23,8,Rain,85
2012-12-17,42,40,37,43,40,37,100,100,93,29.95,29.86,29.68,5,4,3,12,8,17,0.79,8,Rain,38
2012-12-18,46,44,42,46,44,36,100,97,76,29.67,29.50,29.45,10,10,10,16,6,24,1.44,7,Rain,336
2012-12-19,46,42,35,36,31,27,87,66,46,30.07,29.76,29.53,10,10,9,23,11,34,0.00,3,,323
2012-12-20,42,38,33,37,31,27,93,74,57,30.21,30.10,29.91,10,10,9,9,6,16,0.10,2,Rain,78
2012-12-21,55,46,37,55,40,28,100,87,70,29.87,29.34,29.10,10,7,1,26,13,40,1.49,7,Rain,191
2012-12-22,37,35,33,34,24,18,100,66,48,29.73,29.49,29.28,10,9,1,21,10,31,0.39,6,Snow,292
2012-12-23,41,37,33,27,22,19,70,57,48,29.91,29.85,29.74,10,10,9,12,7,20,0.00,3,,269
2012-12-24,37,34,32,32,22,19,100,63,52,30.07,30.01,29.91,10,9,1,9,4,,0.99,1,Rain-Snow,322
2012-12-25,35,32,28,34,30,23,100,93,75,30.22,30.05,29.92,10,7,2,13,6,18,0.47,5,Rain,357
2012-12-26,35,30,24,36,25,18,100,78,60,30.27,30.10,29.57,10,8,0,23,9,36,5.90,3,Rain-Snow,50
2012-12-27,41,36,32,39,34,23,100,93,69,29.73,29.44,29.26,10,6,1,24,16,36,2.58,8,Rain,360
2012-12-28,35,32,26,25,22,19,93,68,60,30.04,29.94,29.74,10,10,10,22,12,36,0.00,1,,329
2012-12-29,33,30,28,32,29,23,100,91,80,30.01,29.72,29.41,10,6,0,15,5,22,22.96,4,Rain-Snow,14
2012-12-30,33,30,26,30,17,9,93,59,38,30.05,29.80,29.50,10,9,2,23,14,41,0.77,2,Rain-Snow,326
2012-12-31,35,30,24,27,19,10,70,60,47,30.11,29.99,29.82,10,10,9,14,8,21,0.00,1,,269